Time;durP1;ratioP1;P1;durP2;ratioP2;P2;SDS_P1;SDS_P2;PMS_P1;PMS_P2;Temp;Humidity;BMP_temperature;BMP_pressure;BME280_temperature;BME280_humidity;BME280_pressure;Samples;Min_cycle;Max_cycle;Signal;HPM_P1;HPM_P2
2024/01/20 00:00:44;;;;;;;11.73;5.05;;;0.50;99.90;;;;;;6150644;23;20108;-89
2024/01/20 00:03:11;;;;;;;9.35;4.43;;;1.70;99.90;;;;;;6150615;23;20010;-89
2024/01/20 00:05:38;;;;;;;10.82;5.22;;;0.50;99.90;;;;;;6150366;23;20776;-89
2024/01/20 00:08:04;;;;;;;10.98;4.90;;;0.50;99.90;;;;;;6150706;23;20005;-89
2024/01/20 00:10:31;;;;;;;11.38;4.85;;;0.60;99.90;;;;;;6174966;23;20009;-88
2024/01/20 00:12:58;;;;;;;11.25;5.00;;;0.50;99.90;;;;;;6150492;23;20010;-89
2024/01/20 00:15:24;;;;;;;10.25;4.90;;;0.50;99.90;;;;;;6150431;23;20120;-89
2024/01/20 00:17:51;;;;;;;10.63;5.35;;;0.50;99.90;;;;;;6174967;23;20017;-89
2024/01/20 00:20:18;;;;;;;11.35;5.50;;;1.80;99.90;;;;;;6150437;23;20017;-89
2024/01/20 00:22:45;;;;;;;9.88;5.68;;;0.50;99.90;;;;;;6150614;23;20396;-89
2024/01/20 00:25:12;;;;;;;13.95;6.20;;;1.70;99.90;;;;;;6174799;23;20013;-89
2024/01/20 00:27:38;;;;;;;13.20;5.97;;;1.20;99.90;;;;;;6150433;23;20060;-89
2024/01/20 00:30:05;;;;;;;12.20;5.85;;;0.50;99.90;;;;;;6174524;23;20014;-89
2024/01/20 00:32:32;;;;;;;13.50;6.35;;;0.60;99.90;;;;;;6150349;23;20095;-89
2024/01/20 00:34:59;;;;;;;11.27;6.00;;;1.60;99.90;;;;;;6150004;23;20444;-89
2024/01/20 00:37:25;;;;;;;14.18;6.75;;;0.60;99.90;;;;;;6150185;23;20088;-89
2024/01/20 00:39:52;;;;;;;14.02;6.93;;;1.30;99.90;;;;;;6150281;23;20096;-89
2024/01/20 00:42:18;;;;;;;18.30;6.68;;;0.60;99.90;;;;;;6149829;23;20352;-90
2024/01/20 00:44:45;;;;;;;22.40;7.07;;;1.30;99.90;;;;;;6150263;23;20020;-89
2024/01/20 00:47:12;;;;;;;17.95;7.15;;;0.60;99.90;;;;;;6149976;23;20107;-89
2024/01/20 00:49:38;;;;;;;17.23;7.38;;;0.60;99.90;;;;;;6174566;23;20067;-89
2024/01/20 00:52:05;;;;;;;13.70;6.53;;;1.60;99.90;;;;;;6150177;23;20506;-89
2024/01/20 00:54:32;;;;;;;13.95;6.97;;;0.60;99.90;;;;;;6149938;23;20014;-89
2024/01/20 00:56:59;;;;;;;16.65;7.40;;;1.20;99.90;;;;;;6149979;23;20009;-89
2024/01/20 00:59:25;;;;;;;11.98;7.28;;;0.50;99.90;;;;;;6174579;23;20022;-89
2024/01/20 01:01:52;;;;;;;14.00;6.38;;;0.60;99.90;;;;;;6149754;23;20025;-88
2024/01/20 01:04:19;;;;;;;17.65;7.25;;;0.50;99.90;;;;;;6149980;23;20912;-89
2024/01/20 01:06:46;;;;;;;15.38;7.68;;;2.10;99.90;;;;;;6149571;23;20045;-89
2024/01/20 01:09:12;;;;;;;14.43;7.43;;;0.60;99.90;;;;;;6174092;23;20468;-89
2024/01/20 01:11:39;;;;;;;17.80;8.52;;;0.60;99.90;;;;;;6150095;23;20385;-89
2024/01/20 01:14:06;;;;;;;19.30;7.95;;;1.40;99.90;;;;;;6173952;23;20017;-89
2024/01/20 01:16:32;;;;;;;13.63;7.82;;;0.50;99.90;;;;;;6149930;23;20084;-89
2024/01/20 01:18:59;;;;;;;13.80;7.45;;;1.50;99.90;;;;;;6174121;23;20088;-89
2024/01/20 01:21:26;;;;;;;19.70;7.63;;;0.50;99.90;;;;;;6149725;23;20017;-88
2024/01/20 01:23:52;;;;;;;19.67;8.20;;;0.50;99.90;;;;;;6149258;23;20049;-89
2024/01/20 01:26:19;;;;;;;16.75;7.90;;;0.50;99.90;;;;;;6149880;23;20068;-89
2024/01/20 01:28:46;;;;;;;17.20;8.02;;;1.30;99.90;;;;;;6149662;23;20013;-89
2024/01/20 01:31:13;;;;;;;16.13;8.45;;;0.40;99.90;;;;;;6149889;23;20009;-89
2024/01/20 01:33:39;;;;;;;16.50;7.78;;;0.30;99.90;;;;;;6149868;23;20028;-86
2024/01/20 01:36:06;;;;;;;15.25;7.93;;;0.30;99.90;;;;;;6149697;23;20013;-86
2024/01/20 01:38:33;;;;;;;13.48;7.95;;;2.10;99.90;;;;;;6149659;23;20017;-87
2024/01/20 01:41:00;;;;;;;14.20;7.72;;;1.50;99.90;;;;;;6149840;23;20673;-87
2024/01/20 01:43:27;;;;;;;11.57;7.10;;;0.40;99.90;;;;;;6149256;23;20013;-86
2024/01/20 01:45:54;;;;;;;14.23;7.65;;;0.40;99.90;;;;;;6149788;23;20009;-86
2024/01/20 01:48:22;;;;;;;14.13;7.95;;;0.40;99.90;;;;;;6149411;23;20140;-86
2024/01/20 01:50:49;;;;;;;16.30;8.40;;;0.30;99.90;;;;;;6149454;23;20010;-87
2024/01/20 01:53:16;;;;;;;14.85;8.57;;;0.30;99.90;;;;;;6149109;23;20017;-86
2024/01/20 01:55:46;;;;;;;16.35;8.95;;;0.30;99.90;;;;;;6149342;23;20014;-87
2024/01/20 01:58:12;;;;;;;20.40;9.50;;;0.30;99.90;;;;;;6149398;23;20020;-87
2024/01/20 02:00:39;;;;;;;17.85;9.10;;;0.20;99.90;;;;;;6149215;23;20017;-87
2024/01/20 02:03:08;;;;;;;15.45;9.75;;;0.20;99.90;;;;;;6149198;23;20015;-86
2024/01/20 02:05:34;;;;;;;17.27;9.52;;;0.20;99.90;;;;;;6148833;23;20345;-86
2024/01/20 02:08:01;;;;;;;17.08;9.52;;;0.10;99.90;;;;;;6149154;23;20009;-86
2024/01/20 02:10:29;;;;;;;17.13;10.27;;;0.10;99.90;;;;;;6149120;23;20088;-86
2024/01/20 02:12:56;;;;;;;18.40;9.95;;;0.70;99.90;;;;;;6173546;23;20060;-86
2024/01/20 02:15:24;;;;;;;19.90;10.48;;;0.40;99.90;;;;;;6149138;23;20080;-86
2024/01/20 02:17:52;;;;;;;19.13;10.23;;;1.00;99.90;;;;;;6173727;23;20344;-86
2024/01/20 02:20:19;;;;;;;19.17;9.80;;;0.00;99.90;;;;;;6173657;23;20092;-86
2024/01/20 02:22:46;;;;;;;16.90;11.13;;;0.10;99.90;;;;;;6149243;23;20056;-86
2024/01/20 02:25:13;;;;;;;18.17;11.20;;;0.10;99.90;;;;;;6173477;23;20440;-86
2024/01/20 02:27:39;;;;;;;22.95;12.10;;;0.10;99.90;;;;;;6173546;23;20017;-86
2024/01/20 02:30:07;;;;;;;21.42;10.68;;;0.10;99.90;;;;;;6173868;23;20032;-86
2024/01/20 02:32:33;;;;;;;24.60;11.48;;;0.10;99.90;;;;;;6173443;23;20032;-86
2024/01/20 02:35:00;;;;;;;18.63;10.30;;;0.10;99.90;;;;;;6173368;23;20048;-86
2024/01/20 02:37:27;;;;;;;20.98;10.85;;;0.10;99.90;;;;;;6173474;23;20531;-86
2024/01/20 02:39:53;;;;;;;18.27;11.65;;;0.10;99.90;;;;;;6173454;23;20025;-86
2024/01/20 02:42:20;;;;;;;21.92;11.20;;;0.10;99.90;;;;;;6173447;23;20013;-86
2024/01/20 02:44:46;;;;;;;19.88;11.45;;;0.10;99.90;;;;;;6173403;23;20068;-86
2024/01/20 02:47:14;;;;;;;20.40;10.35;;;0.00;99.90;;;;;;6173182;23;20005;-86
2024/01/20 02:49:40;;;;;;;24.60;11.73;;;0.60;99.90;;;;;;6173556;23;20045;-86
2024/01/20 02:52:07;;;;;;;19.23;11.35;;;0.00;99.90;;;;;;6173425;23;20016;-86
2024/01/20 02:54:33;;;;;;;20.85;11.88;;;0.00;99.90;;;;;;6173249;23;20077;-86
2024/01/20 02:57:00;;;;;;;21.55;10.88;;;0.00;99.90;;;;;;6173462;23;20013;-86
2024/01/20 02:59:27;;;;;;;23.00;11.57;;;0.00;99.90;;;;;;6173121;23;20417;-86
2024/01/20 03:01:54;;;;;;;23.30;11.82;;;0.00;99.90;;;;;;6173376;23;20017;-86
2024/01/20 03:04:20;;;;;;;20.02;12.32;;;1.30;99.90;;;;;;6172968;23;20021;-86
2024/01/20 03:06:47;;;;;;;24.23;12.00;;;0.00;99.90;;;;;;6173160;23;20010;-86
2024/01/20 03:09:14;;;;;;;24.42;13.32;;;0.00;99.90;;;;;;6173234;23;20009;-86
2024/01/20 03:11:42;;;;;;;25.23;12.35;;;0.00;99.90;;;;;;6172895;23;20044;-86
2024/01/20 03:14:09;;;;;;;23.67;11.85;;;0.00;99.90;;;;;;6172882;23;20018;-86
2024/01/20 03:16:37;;;;;;;27.02;14.73;;;0.00;99.90;;;;;;6172990;23;20014;-86
2024/01/20 03:19:04;;;;;;;21.40;12.50;;;0.00;99.90;;;;;;6172720;23;20021;-86
2024/01/20 03:21:31;;;;;;;24.77;13.93;;;-0.10;99.90;;;;;;6173212;23;20013;-86
2024/01/20 03:23:58;;;;;;;24.58;13.70;;;0.00;99.90;;;;;;6173040;23;20024;-86
2024/01/20 03:26:24;;;;;;;24.98;12.93;;;-0.10;99.90;;;;;;6172988;23;20088;-86
2024/01/20 03:28:51;;;;;;;25.55;13.68;;;0.30;99.90;;;;;;6173347;23;20018;-86
2024/01/20 03:31:18;;;;;;;29.45;13.70;;;-0.10;99.90;;;;;;6172888;23;20440;-87
2024/01/20 03:33:44;;;;;;;25.33;14.10;;;0.90;99.90;;;;;;6173468;23;20009;-86
2024/01/20 03:36:11;;;;;;;29.92;14.90;;;1.10;99.90;;;;;;6173047;23;20021;-86
2024/01/20 03:38:38;;;;;;;28.20;14.75;;;-0.10;99.90;;;;;;6173236;23;20091;-86
2024/01/20 03:41:04;;;;;;;25.00;14.10;;;-0.10;99.90;;;;;;6173257;23;20018;-85
2024/01/20 03:43:31;;;;;;;28.80;15.20;;;-0.20;99.90;;;;;;6173146;23;20045;-86
2024/01/20 03:45:58;;;;;;;23.95;14.88;;;-0.20;99.90;;;;;;6173042;23;20866;-86
2024/01/20 03:48:24;;;;;;;27.13;15.00;;;-0.20;99.90;;;;;;6173013;23;20046;-86
2024/01/20 03:50:51;;;;;;;22.13;13.38;;;-0.20;99.90;;;;;;6172858;23;20009;-87
2024/01/20 03:53:18;;;;;;;25.33;14.50;;;1.10;99.90;;;;;;6172961;23;20009;-86
2024/01/20 03:55:44;;;;;;;24.38;13.75;;;-0.10;99.90;;;;;;6172613;23;20020;-86
2024/01/20 03:58:11;;;;;;;29.85;14.63;;;-0.10;99.90;;;;;;6172825;23;20096;-86
2024/01/20 04:00:37;;;;;;;28.92;14.40;;;-0.10;99.90;;;;;;6172616;23;20016;-86
2024/01/20 04:03:04;;;;;;;26.33;13.82;;;-0.10;99.90;;;;;;6172565;23;20017;-87
2024/01/20 04:05:31;;;;;;;30.77;14.38;;;-0.10;99.90;;;;;;6172444;23;20018;-86
2024/01/20 04:07:58;;;;;;;27.08;14.68;;;-0.10;99.90;;;;;;6172527;23;20009;-85
2024/01/20 04:10:24;;;;;;;25.88;14.85;;;-0.20;99.90;;;;;;6172541;23;20099;-85
2024/01/20 04:12:51;;;;;;;26.58;14.10;;;-0.10;99.90;;;;;;6172786;23;20010;-86
2024/01/20 04:15:17;;;;;;;23.63;14.52;;;1.20;99.90;;;;;;6172600;23;20097;-85
2024/01/20 04:17:44;;;;;;;25.60;13.70;;;0.70;99.90;;;;;;6173202;23;20025;-86
2024/01/20 04:20:11;;;;;;;25.92;13.13;;;-0.10;99.90;;;;;;6172858;23;20096;-87
2024/01/20 04:22:38;;;;;;;24.13;13.65;;;-0.10;99.90;;;;;;6172903;23;20084;-87
2024/01/20 04:25:05;;;;;;;26.33;14.20;;;-0.10;99.90;;;;;;6173113;23;20013;-86
2024/01/20 04:27:33;;;;;;;27.20;14.27;;;-0.10;99.90;;;;;;6172799;23;20005;-86
2024/01/20 04:30:00;;;;;;;24.90;13.32;;;-0.10;99.90;;;;;;6173616;23;20017;-86
2024/01/20 04:32:27;;;;;;;25.65;14.18;;;-0.20;99.90;;;;;;6174819;23;20028;-87
2024/01/20 04:34:53;;;;;;;27.38;14.02;;;-0.20;99.90;;;;;;6174768;23;20024;-87
2024/01/20 04:37:20;;;;;;;23.85;14.75;;;-0.20;99.90;;;;;;6174918;23;20009;-86
2024/01/20 04:39:47;;;;;;;27.65;14.57;;;-0.20;99.90;;;;;;6199200;23;20017;-86
2024/01/20 04:42:13;;;;;;;24.10;14.02;;;-0.30;99.90;;;;;;6174593;23;20013;-86
2024/01/20 04:44:40;;;;;;;22.58;13.20;;;-0.30;99.90;;;;;;6174819;23;20014;-87
2024/01/20 04:47:07;;;;;;;27.55;13.68;;;-0.30;99.90;;;;;;6174381;23;20028;-86
2024/01/20 04:49:33;;;;;;;25.45;13.65;;;-0.30;99.90;;;;;;6174690;23;20060;-87
2024/01/20 04:52:02;;;;;;;26.08;13.38;;;-0.40;99.90;;;;;;6174559;23;20025;-87
2024/01/20 04:54:29;;;;;;;26.35;14.10;;;-0.30;99.90;;;;;;6174561;23;20105;-87
2024/01/20 04:56:57;;;;;;;29.05;13.52;;;-0.40;99.90;;;;;;6174530;23;20157;-86
2024/01/20 04:59:24;;;;;;;30.85;13.88;;;-0.50;99.90;;;;;;6174763;23;20021;-86
2024/01/20 05:01:52;;;;;;;31.50;13.95;;;-0.40;99.90;;;;;;6174491;23;20451;-87
2024/01/20 05:04:19;;;;;;;25.58;13.50;;;0.50;99.90;;;;;;6174129;23;20056;-86
2024/01/20 05:06:45;;;;;;;30.52;13.57;;;-0.50;99.90;;;;;;6150192;23;20006;-86
2024/01/20 05:09:13;;;;;;;26.70;13.52;;;-0.40;99.90;;;;;;6174122;23;20014;-86
2024/01/20 05:11:40;;;;;;;26.70;13.73;;;-0.50;99.90;;;;;;6174600;23;20025;-86
2024/01/20 05:14:07;;;;;;;26.95;14.27;;;-0.50;99.90;;;;;;6174145;23;20014;-86
2024/01/20 05:16:34;;;;;;;29.13;13.57;;;-0.50;99.90;;;;;;6174386;23;20322;-87
2024/01/20 05:19:01;;;;;;;26.63;13.95;;;-0.50;99.90;;;;;;6174058;23;20108;-86
2024/01/20 05:21:28;;;;;;;28.52;13.57;;;-0.50;99.90;;;;;;6174291;23;20080;-87
2024/01/20 05:23:56;;;;;;;27.67;13.77;;;-0.50;99.90;;;;;;6173997;23;20017;-87
2024/01/20 05:26:23;;;;;;;27.08;13.77;;;-0.50;99.90;;;;;;6174109;23;20687;-87
2024/01/20 05:28:50;;;;;;;25.50;13.45;;;-0.50;99.90;;;;;;6174026;23;20013;-87
2024/01/20 05:31:17;;;;;;;30.90;14.13;;;-0.40;99.90;;;;;;6174030;23;20010;-86
2024/01/20 05:33:43;;;;;;;26.70;13.57;;;-0.50;99.90;;;;;;6174469;23;20096;-86
2024/01/20 05:36:12;;;;;;;26.73;13.85;;;-0.40;99.90;;;;;;6174256;23;20025;-86
2024/01/20 05:38:39;;;;;;;30.65;14.27;;;-0.40;99.90;;;;;;6174016;23;20013;-86
2024/01/20 05:41:07;;;;;;;27.20;14.60;;;-0.50;99.90;;;;;;6173669;23;20014;-87
2024/01/20 05:43:34;;;;;;;28.92;14.60;;;-0.50;99.90;;;;;;6173930;23;20068;-86
2024/01/20 05:46:05;;;;;;;27.48;14.18;;;-0.40;99.90;;;;;;6173997;23;20005;-86
2024/01/20 05:48:33;;;;;;;27.50;14.30;;;-0.50;99.90;;;;;;6174123;23;20056;-86
2024/01/20 05:51:00;;;;;;;28.65;14.77;;;-0.50;99.90;;;;;;6173967;23;20009;-86
2024/01/20 05:53:26;;;;;;;32.78;14.32;;;-0.50;99.90;;;;;;6174073;23;20010;-86
2024/01/20 05:55:53;;;;;;;29.83;14.70;;;-0.60;99.90;;;;;;6149778;23;20013;-86
2024/01/20 05:58:19;;;;;;;31.13;15.32;;;-0.60;99.90;;;;;;6173701;23;20014;-86
2024/01/20 06:00:46;;;;;;;26.42;14.10;;;-0.60;99.90;;;;;;6173755;23;20511;-86
2024/01/20 06:03:13;;;;;;;27.90;14.98;;;-0.70;99.90;;;;;;6173468;23;20021;-86
2024/01/20 06:05:39;;;;;;;31.20;15.05;;;-0.70;99.90;;;;;;6173767;23;20453;-86
2024/01/20 06:08:06;;;;;;;30.67;15.65;;;-0.70;99.90;;;;;;6173782;23;20021;-86
2024/01/20 06:10:32;;;;;;;30.30;14.55;;;-0.80;99.90;;;;;;6173799;23;20014;-86
2024/01/20 06:12:59;;;;;;;33.55;15.60;;;-0.80;99.90;;;;;;6173670;23;20020;-86
2024/01/20 06:15:26;;;;;;;30.05;14.52;;;-0.80;99.90;;;;;;6173513;23;20022;-86
2024/01/20 06:17:53;;;;;;;33.08;15.77;;;-0.80;99.90;;;;;;6173808;23;20021;-86
2024/01/20 06:20:20;;;;;;;30.27;14.60;;;-0.90;99.90;;;;;;6173808;23;20057;-86
2024/01/20 06:22:46;;;;;;;32.78;15.32;;;-0.70;99.90;;;;;;6173501;23;20009;-86
2024/01/20 06:25:13;;;;;;;31.33;15.32;;;0.30;99.90;;;;;;6173702;23;20020;-86
2024/01/20 06:27:39;;;;;;;31.75;14.95;;;-0.90;99.90;;;;;;6173552;23;20048;-87
2024/01/20 06:30:07;;;;;;;32.67;15.13;;;-0.10;99.90;;;;;;6173886;23;20088;-86
2024/01/20 06:32:34;;;;;;;32.05;14.27;;;-0.90;99.90;;;;;;6173651;23;20048;-87
2024/01/20 06:35:00;;;;;;;32.60;15.40;;;-1.00;99.90;;;;;;6173556;23;20017;-87
2024/01/20 06:37:27;;;;;;;32.08;15.70;;;-1.00;99.90;;;;;;6173743;23;20024;-87
2024/01/20 06:39:53;;;;;;;37.50;15.73;;;-1.00;99.90;;;;;;6173660;23;20013;-87
2024/01/20 06:42:20;;;;;;;34.30;15.13;;;-1.10;99.90;;;;;;6173652;23;20013;-86
2024/01/20 06:44:47;;;;;;;38.30;16.17;;;-1.10;99.90;;;;;;6149041;23;20025;-86
2024/01/20 06:47:13;;;;;;;31.70;15.38;;;-1.10;99.90;;;;;;6173446;23;20016;-87
2024/01/20 06:49:40;;;;;;;33.28;15.85;;;-1.10;99.90;;;;;;6173536;23;20017;-86
2024/01/20 06:52:07;;;;;;;39.53;17.23;;;-1.10;99.90;;;;;;6173161;23;20464;-86
2024/01/20 06:54:34;;;;;;;38.35;15.90;;;-0.20;99.90;;;;;;6149282;23;20013;-87
2024/01/20 06:57:00;;;;;;;36.45;16.30;;;-1.10;99.90;;;;;;6173536;23;20018;-87
2024/01/20 06:59:27;;;;;;;37.95;16.13;;;-0.70;99.90;;;;;;6173524;23;20013;-87
2024/01/20 07:01:54;;;;;;;38.13;15.07;;;-1.10;99.90;;;;;;6173494;23;20014;-87
2024/01/20 07:04:20;;;;;;;37.08;16.25;;;-1.10;99.90;;;;;;6173191;23;20100;-87
2024/01/20 07:06:47;;;;;;;36.95;16.17;;;-1.10;99.90;;;;;;6173415;23;20013;-87
2024/01/20 07:09:13;;;;;;;36.20;15.30;;;-1.10;99.90;;;;;;6173275;23;20016;-87
2024/01/20 07:11:40;;;;;;;33.28;15.82;;;-1.10;99.90;;;;;;6173473;23;20009;-86
2024/01/20 07:14:07;;;;;;;34.08;15.27;;;-1.10;99.90;;;;;;6172830;23;20021;-86
2024/01/20 07:16:33;;;;;;;39.28;15.88;;;-1.10;99.90;;;;;;6172705;23;20013;-86
2024/01/20 07:19:00;;;;;;;35.05;15.60;;;-1.10;99.90;;;;;;6172680;23;20021;-86
2024/01/20 07:21:27;;;;;;;34.00;16.27;;;-1.10;99.90;;;;;;6172477;23;20024;-87
2024/01/20 07:23:53;;;;;;;36.70;16.02;;;-1.10;99.90;;;;;;6172304;23;20040;-87
2024/01/20 07:26:20;;;;;;;36.10;15.60;;;-1.10;99.90;;;;;;6172921;23;20036;-86
2024/01/20 07:28:46;;;;;;;38.42;15.68;;;-0.10;99.90;;;;;;6172692;23;20095;-87
2024/01/20 07:31:13;;;;;;;32.47;15.68;;;-1.20;99.90;;;;;;6172733;23;20014;-86
2024/01/20 07:33:41;;;;;;;36.85;15.15;;;-1.20;99.90;;;;;;6172316;23;20013;-86
2024/01/20 07:36:07;;;;;;;34.58;14.93;;;-1.20;99.90;;;;;;6172961;23;20065;-86
2024/01/20 07:38:34;;;;;;;41.10;16.15;;;-1.20;99.90;;;;;;6172822;23;20013;-86
2024/01/20 07:41:02;;;;;;;32.10;14.68;;;-1.20;99.90;;;;;;6173082;23;20010;-86
2024/01/20 07:43:28;;;;;;;36.92;16.27;;;-1.20;99.90;;;;;;6172510;23;20033;-86
2024/01/20 07:45:56;;;;;;;37.55;15.52;;;-1.20;99.90;;;;;;6172932;23;20018;-86
2024/01/20 07:48:23;;;;;;;37.38;17.35;;;-1.20;99.90;;;;;;6173122;23;20014;-86
2024/01/20 07:50:50;;;;;;;38.72;18.00;;;0.10;99.90;;;;;;6173031;23;20020;-85
2024/01/20 07:53:17;;;;;;;37.28;15.65;;;-1.20;99.90;;;;;;6172752;23;20013;-86
2024/01/20 07:55:43;;;;;;;33.00;16.50;;;-1.20;99.90;;;;;;6173122;23;20010;-86
2024/01/20 07:58:10;;;;;;;33.85;16.73;;;-1.10;99.90;;;;;;6172786;23;20417;-86
2024/01/20 08:00:37;;;;;;;39.25;16.67;;;-1.10;99.90;;;;;;6172280;23;20014;-86
2024/01/20 08:03:03;;;;;;;34.75;15.35;;;-1.10;99.90;;;;;;6172165;23;20010;-86
2024/01/20 08:05:31;;;;;;;32.22;14.40;;;-1.10;99.90;;;;;;6173646;23;20025;-86
2024/01/20 08:07:58;;;;;;;32.40;14.98;;;-1.10;99.90;;;;;;6173674;23;20010;-86
2024/01/20 08:10:25;;;;;;;32.58;14.68;;;-1.10;99.90;;;;;;6174786;23;20009;-88
2024/01/20 08:12:52;;;;;;;34.55;14.82;;;-1.00;99.90;;;;;;6174399;23;20009;-85
2024/01/20 08:15:18;;;;;;;35.10;14.98;;;-1.00;99.90;;;;;;6174121;23;20097;-85
2024/01/20 08:17:45;;;;;;;37.67;14.88;;;-0.90;99.90;;;;;;6174378;23;20416;-85
2024/01/20 08:20:12;;;;;;;37.33;16.85;;;0.10;99.90;;;;;;6174414;23;20057;-86
2024/01/20 08:22:38;;;;;;;37.33;15.68;;;-0.80;99.90;;;;;;6176549;23;20017;-86
2024/01/20 08:25:05;;;;;;;37.67;14.93;;;-0.80;99.90;;;;;;6175444;23;20487;-87
2024/01/20 08:27:32;;;;;;;35.72;15.98;;;-0.70;99.90;;;;;;6174056;23;20013;-86
2024/01/20 08:29:58;;;;;;;42.80;15.75;;;-0.70;99.90;;;;;;6174170;23;20014;-87
2024/01/20 08:32:25;;;;;;;36.67;15.13;;;-0.60;99.90;;;;;;6174420;23;20101;-86
2024/01/20 08:34:52;;;;;;;35.67;15.98;;;-0.50;99.90;;;;;;6150001;23;20019;-87
2024/01/20 08:37:18;;;;;;;36.25;14.85;;;-0.50;99.90;;;;;;6174277;23;20010;-87
2024/01/20 08:39:45;;;;;;;37.72;15.52;;;-0.40;99.90;;;;;;6174010;23;20104;-87
2024/01/20 08:42:11;;;;;;;34.00;15.40;;;0.80;99.90;;;;;;6175054;23;20018;-93
2024/01/20 08:44:38;;;;;;;37.13;15.63;;;-0.30;99.90;;;;;;6150374;23;20036;-91
2024/01/20 08:47:06;;;;;;;34.47;14.52;;;-0.30;99.90;;;;;;6199792;23;20110;-92
2024/01/20 08:49:32;;;;;;;35.47;15.38;;;1.00;99.90;;;;;;6175272;23;20056;-92
2024/01/20 08:51:59;;;;;;;35.90;15.82;;;-0.20;99.90;;;;;;6175898;23;20449;-93
2024/01/20 08:54:26;;;;;;;34.65;15.27;;;-0.20;99.90;;;;;;6174762;23;20025;-93
2024/01/20 08:56:52;;;;;;;37.80;15.52;;;-0.10;99.90;;;;;;6174458;23;20444;-93
2024/01/20 08:59:19;;;;;;;35.65;15.88;;;-0.10;99.90;;;;;;6174472;23;20017;-93
2024/01/20 09:01:46;;;;;;;39.10;14.70;;;0.00;99.90;;;;;;6174201;23;20460;-93
2024/01/20 09:04:13;;;;;;;36.95;15.02;;;0.00;99.90;;;;;;6174582;23;20403;-92
2024/01/20 09:06:40;;;;;;;34.70;15.38;;;1.10;99.90;;;;;;6174705;23;20483;-93
2024/01/20 09:09:06;;;;;;;37.03;15.07;;;0.20;99.90;;;;;;6174793;23;20036;-93
2024/01/20 09:11:33;;;;;;;32.85;14.95;;;1.60;99.90;;;;;;6174832;23;20330;-93
2024/01/20 09:14:00;;;;;;;35.72;15.25;;;0.30;99.90;;;;;;6174499;23;20028;-92
2024/01/20 09:16:26;;;;;;;36.92;16.23;;;1.20;99.90;;;;;;6173969;23;20083;-93
2024/01/20 09:18:53;;;;;;;28.63;13.65;;;0.40;99.90;;;;;;6174768;23;20018;-91
2024/01/20 09:21:19;;;;;;;35.80;16.23;;;1.20;99.90;;;;;;6174186;23;20018;-92
2024/01/20 09:23:46;;;;;;;37.25;15.70;;;0.40;99.90;;;;;;6174277;23;20017;-91
2024/01/20 09:26:13;;;;;;;32.50;14.68;;;0.40;99.90;;;;;;6174105;23;20009;-93
2024/01/20 09:28:39;;;;;;;43.15;15.90;;;0.40;99.90;;;;;;6174280;23;20010;-92
2024/01/20 09:31:06;;;;;;;37.15;16.38;;;0.40;99.90;;;;;;6174543;23;20109;-92
2024/01/20 09:33:33;;;;;;;30.13;14.27;;;0.50;99.90;;;;;;6174288;23;20013;-92
2024/01/20 09:35:59;;;;;;;34.28;15.10;;;0.40;99.90;;;;;;6174611;23;20021;-92
2024/01/20 09:38:28;;;;;;;33.53;14.00;;;0.50;99.90;;;;;;6176409;23;20088;-92
2024/01/20 09:40:58;;;;;;;31.88;14.15;;;0.50;99.90;;;;;;6174408;23;20010;-92
2024/01/20 09:43:25;;;;;;;35.13;15.27;;;0.50;99.90;;;;;;6174401;23;20060;-92
2024/01/20 09:45:52;;;;;;;33.13;14.90;;;0.60;99.90;;;;;;6149557;23;20049;-92
2024/01/20 09:48:19;;;;;;;33.58;14.38;;;0.60;99.90;;;;;;6174361;23;20014;-92
2024/01/20 09:50:47;;;;;;;33.72;15.15;;;0.60;99.90;;;;;;6174261;23;20097;-92
2024/01/20 09:53:15;;;;;;;30.80;13.65;;;0.70;99.90;;;;;;6173903;23;20010;-92
2024/01/20 09:55:43;;;;;;;33.88;15.00;;;0.70;99.90;;;;;;6174160;23;20014;-91
2024/01/20 09:58:15;;;;;;;28.27;13.35;;;0.70;99.90;;;;;;6173670;23;20084;-92
2024/01/20 10:00:42;;;;;;;30.90;14.38;;;0.80;99.90;;;;;;6173687;23;20009;-91
2024/01/20 10:03:11;;;;;;;37.15;14.68;;;0.70;99.90;;;;;;6149073;23;20056;-91
2024/01/20 10:05:38;;;;;;;37.28;15.02;;;0.80;99.90;;;;;;6173562;23;20049;-91
2024/01/20 10:08:05;;;;;;;35.88;14.63;;;0.80;99.90;;;;;;6174215;23;20093;-91
2024/01/20 10:10:32;;;;;;;34.03;15.18;;;0.80;99.90;;;;;;6174213;23;20016;-92
2024/01/20 10:13:00;;;;;;;34.67;13.98;;;0.80;99.90;;;;;;6173775;23;20013;-90
2024/01/20 10:15:30;;;;;;;39.70;15.50;;;0.80;99.90;;;;;;6173598;23;20029;-92
2024/01/20 10:17:59;;;;;;;33.75;13.80;;;1.80;99.90;;;;;;6174193;23;20467;-92
2024/01/20 10:20:31;;;;;;;36.95;15.07;;;0.90;99.90;;;;;;6173680;23;20017;-92
2024/01/20 10:23:01;;;;;;;31.73;14.30;;;2.00;99.90;;;;;;6173889;23;20025;-92
2024/01/20 10:25:27;;;;;;;34.17;14.90;;;1.00;99.90;;;;;;6173739;23;20022;-92
2024/01/20 10:27:54;;;;;;;32.03;13.73;;;1.00;99.90;;;;;;6173650;23;20527;-91
2024/01/20 10:30:22;;;;;;;28.77;13.40;;;1.10;99.90;;;;;;6174017;23;20028;-92
2024/01/20 10:32:49;;;;;;;31.60;14.23;;;1.10;99.90;;;;;;6174154;23;20009;-91
2024/01/20 10:35:16;;;;;;;31.20;13.20;;;1.10;99.90;;;;;;6149451;23;20075;-91
2024/01/20 10:37:48;;;;;;;34.08;14.43;;;1.20;99.90;;;;;;6173439;23;20097;-91
2024/01/20 10:40:16;;;;;;;31.38;13.50;;;1.20;99.90;;;;;;6173880;23;20021;-90
2024/01/20 10:42:47;;;;;;;35.03;13.98;;;1.20;99.90;;;;;;6174021;23;20522;-91
2024/01/20 10:45:18;;;;;;;28.65;13.18;;;1.30;99.90;;;;;;6173753;23;20021;-90
2024/01/20 10:48:14;;;;;;;34.78;13.82;;;1.30;99.90;;;;;;6173515;23;20012;-91
2024/01/20 10:50:44;;;;;;;31.03;14.40;;;1.30;99.90;;;;;;6149382;23;20013;-91
2024/01/20 10:53:11;;;;;;;31.27;13.30;;;1.30;99.90;;;;;;6174040;23;20010;-91
2024/01/20 10:55:40;;;;;;;31.02;13.75;;;1.40;99.90;;;;;;6173718;23;20084;-92
2024/01/20 10:58:08;;;;;;;28.75;12.60;;;1.30;99.90;;;;;;6173589;23;20013;-91
2024/01/20 11:00:36;;;;;;;30.25;13.23;;;2.10;99.90;;;;;;6148970;23;20326;-90
2024/01/20 11:03:05;;;;;;;32.30;14.88;;;1.40;99.90;;;;;;6173551;23;20013;-90
2024/01/20 11:05:32;;;;;;;29.20;12.82;;;2.10;99.90;;;;;;6173254;23;20023;-90
2024/01/20 11:08:08;;;;;;;30.27;13.23;;;2.00;99.90;;;;;;6148970;23;20476;-91
2024/01/20 11:10:43;;;;;;;24.70;12.10;;;1.40;99.90;;;;;;6173642;23;20400;-91
2024/01/20 11:13:11;;;;;;;28.90;12.85;;;1.40;99.90;;;;;;6173414;23;20036;-90
2024/01/20 11:15:39;;;;;;;31.52;13.30;;;2.70;99.90;;;;;;6173143;23;20025;-92
2024/01/20 11:18:19;;;;;;;30.05;13.52;;;1.50;99.90;;;;;;6173400;23;20025;-92
2024/01/20 11:21:04;;;;;;;27.17;12.82;;;1.50;99.90;;;;;;6149628;23;20080;-92
2024/01/20 11:23:31;;;;;;;31.25;12.80;;;1.60;99.90;;;;;;6173236;23;20029;-92
2024/01/20 11:25:58;;;;;;;30.13;13.30;;;1.60;99.90;;;;;;6173676;23;20060;-92
2024/01/20 11:28:29;;;;;;;29.10;13.23;;;1.70;99.90;;;;;;6173360;23;20096;-92
2024/01/20 11:30:56;;;;;;;32.50;13.60;;;1.80;99.90;;;;;;6173662;23;20009;-92
2024/01/20 11:33:24;;;;;;;35.08;12.77;;;1.80;99.90;;;;;;6173746;23;20056;-91
2024/01/20 11:35:54;;;;;;;26.08;12.57;;;1.80;99.90;;;;;;6173318;23;20021;-93
2024/01/20 11:38:21;;;;;;;29.15;12.57;;;3.10;99.90;;;;;;6173263;23;20017;-92
2024/01/20 11:41:00;;;;;;;28.27;12.80;;;1.90;99.90;;;;;;6172745;23;20020;-92
2024/01/20 11:43:28;;;;;;;25.13;12.45;;;2.10;99.90;;;;;;6173487;23;20017;-93
2024/01/20 11:45:55;;;;;;;26.40;12.20;;;1.90;99.90;;;;;;6172821;23;20055;-92
2024/01/20 11:48:22;;;;;;;27.58;13.65;;;2.00;99.90;;;;;;6173063;23;20005;-92
2024/01/20 11:50:49;;;;;;;30.48;12.30;;;2.00;99.90;;;;;;6172722;23;20014;-92
2024/01/20 11:53:20;;;;;;;26.63;12.30;;;3.30;99.90;;;;;;6173245;23;20045;-93
2024/01/20 11:55:59;;;;;;;25.88;12.70;;;2.60;99.90;;;;;;6172913;23;20018;-92
2024/01/20 11:58:26;;;;;;;28.80;12.82;;;3.60;99.90;;;;;;6173370;23;20036;-92
2024/01/20 12:00:54;;;;;;;23.98;11.23;;;2.10;99.90;;;;;;6173237;23;20013;-93
2024/01/20 12:03:21;;;;;;;28.13;11.73;;;2.10;99.90;;;;;;6173723;23;20021;-92
2024/01/20 12:05:48;;;;;;;27.88;12.45;;;3.60;99.90;;;;;;6173273;23;20023;-92
2024/01/20 12:08:15;;;;;;;26.83;12.60;;;3.50;99.90;;;;;;6172967;23;20045;-92
2024/01/20 12:10:42;;;;;;;25.75;11.48;;;3.70;99.90;;;;;;6173879;23;20401;-92
2024/01/20 12:13:13;;;;;;;25.15;11.23;;;3.40;99.90;;;;;;6173366;23;20013;-92
2024/01/20 12:15:41;;;;;;;25.45;11.48;;;3.20;99.90;;;;;;6114886;23;20074;-93
2024/01/20 12:18:08;;;;;;;28.48;11.80;;;2.40;99.90;;;;;;6114659;23;20024;-91
2024/01/20 12:20:38;;;;;;;26.20;11.68;;;3.60;99.90;;;;;;6114513;23;20018;-93
2024/01/20 12:23:05;;;;;;;27.52;11.27;;;3.70;99.90;;;;;;6114210;23;20442;-92
2024/01/20 12:25:32;;;;;;;32.42;13.05;;;2.20;99.90;;;;;;6114795;23;20057;-93
2024/01/20 12:27:59;;;;;;;25.25;11.45;;;3.50;99.90;;;;;;6114289;23;20500;-92
2024/01/20 12:30:26;;;;;;;24.00;10.98;;;3.70;99.90;;;;;;6114625;23;20053;-91
2024/01/20 12:32:53;;;;;;;30.58;12.32;;;3.70;99.90;;;;;;6114115;23;20014;-91
2024/01/20 12:35:19;;;;;;;25.00;11.23;;;2.30;99.90;;;;;;6114673;23;20015;-92